sensor_id;sensor_type;location;lat;lon;timestamp;P1;durP1;ratioP1;P2;durP2;ratioP2
21868;SDS011;11099;41.564;23.296;2022-08-21T00:00:51;6.45;;;4.90;;
21868;SDS011;11099;41.564;23.296;2022-08-21T00:03:17;8.63;;;4.43;;
21868;SDS011;11099;41.564;23.296;2022-08-21T00:05:44;9.32;;;4.85;;
21868;SDS011;11099;41.564;23.296;2022-08-21T00:08:14;8.70;;;4.65;;
21868;SDS011;11099;41.564;23.296;2022-08-21T00:10:40;7.38;;;4.60;;
21868;SDS011;11099;41.564;23.296;2022-08-21T00:13:07;6.30;;;4.78;;
21868;SDS011;11099;41.564;23.296;2022-08-21T00:15:33;7.20;;;4.97;;
21868;SDS011;11099;41.564;23.296;2022-08-21T00:18:02;7.63;;;5.47;;
21868;SDS011;11099;41.564;23.296;2022-08-21T00:20:28;11.15;;;6.20;;
21868;SDS011;11099;41.564;23.296;2022-08-21T00:22:55;12.27;;;5.68;;
21868;SDS011;11099;41.564;23.296;2022-08-21T00:25:20;6.97;;;4.65;;
21868;SDS011;11099;41.564;23.296;2022-08-21T00:27:46;7.70;;;5.78;;
21868;SDS011;11099;41.564;23.296;2022-08-21T00:30:13;9.98;;;6.13;;
21868;SDS011;11099;41.564;23.296;2022-08-21T00:32:41;7.32;;;5.55;;
21868;SDS011;11099;41.564;23.296;2022-08-21T00:35:08;9.48;;;5.00;;
21868;SDS011;11099;41.564;23.296;2022-08-21T00:40:03;10.60;;;5.82;;
21868;SDS011;11099;41.564;23.296;2022-08-21T00:42:29;8.63;;;5.65;;
21868;SDS011;11099;41.564;23.296;2022-08-21T00:44:55;8.25;;;5.53;;
21868;SDS011;11099;41.564;23.296;2022-08-21T00:47:20;6.78;;;5.18;;
21868;SDS011;11099;41.564;23.296;2022-08-21T00:49:46;8.70;;;5.90;;
21868;SDS011;11099;41.564;23.296;2022-08-21T00:52:16;7.13;;;5.40;;
21868;SDS011;11099;41.564;23.296;2022-08-21T00:54:46;7.68;;;4.95;;
21868;SDS011;11099;41.564;23.296;2022-08-21T00:57:13;6.63;;;5.15;;
21868;SDS011;11099;41.564;23.296;2022-08-21T00:59:46;10.70;;;5.28;;
21868;SDS011;11099;41.564;23.296;2022-08-21T01:02:16;7.82;;;5.13;;
21868;SDS011;11099;41.564;23.296;2022-08-21T01:04:42;9.48;;;5.47;;
21868;SDS011;11099;41.564;23.296;2022-08-21T01:07:08;5.57;;;5.00;;
21868;SDS011;11099;41.564;23.296;2022-08-21T01:09:33;8.98;;;4.82;;
21868;SDS011;11099;41.564;23.296;2022-08-21T01:11:59;7.57;;;4.93;;
21868;SDS011;11099;41.564;23.296;2022-08-21T01:14:25;7.63;;;4.90;;
21868;SDS011;11099;41.564;23.296;2022-08-21T01:16:52;7.72;;;4.50;;
21868;SDS011;11099;41.564;23.296;2022-08-21T01:19:19;4.90;;;3.88;;
21868;SDS011;11099;41.564;23.296;2022-08-21T01:21:46;5.43;;;3.60;;
21868;SDS011;11099;41.564;23.296;2022-08-21T01:24:12;8.55;;;4.18;;
21868;SDS011;11099;41.564;23.296;2022-08-21T01:26:38;7.28;;;3.65;;
21868;SDS011;11099;41.564;23.296;2022-08-21T01:29:07;5.78;;;3.88;;
21868;SDS011;11099;41.564;23.296;2022-08-21T01:31:38;7.68;;;4.13;;
21868;SDS011;11099;41.564;23.296;2022-08-21T01:34:04;7.50;;;3.85;;
21868;SDS011;11099;41.564;23.296;2022-08-21T01:36:30;7.85;;;4.72;;
21868;SDS011;11099;41.564;23.296;2022-08-21T01:38:56;7.28;;;3.80;;
21868;SDS011;11099;41.564;23.296;2022-08-21T01:41:22;7.10;;;4.18;;
21868;SDS011;11099;41.564;23.296;2022-08-21T01:43:48;9.15;;;4.30;;
21868;SDS011;11099;41.564;23.296;2022-08-21T01:46:14;9.30;;;4.50;;
21868;SDS011;11099;41.564;23.296;2022-08-21T01:48:40;5.70;;;3.83;;
21868;SDS011;11099;41.564;23.296;2022-08-21T01:51:06;6.47;;;4.00;;
21868;SDS011;11099;41.564;23.296;2022-08-21T01:53:33;5.22;;;4.35;;
21868;SDS011;11099;41.564;23.296;2022-08-21T01:56:02;11.65;;;4.50;;
21868;SDS011;11099;41.564;23.296;2022-08-21T01:58:29;8.15;;;3.92;;
21868;SDS011;11099;41.564;23.296;2022-08-21T02:00:55;7.57;;;4.57;;
21868;SDS011;11099;41.564;23.296;2022-08-21T02:03:20;7.10;;;4.88;;
21868;SDS011;11099;41.564;23.296;2022-08-21T02:05:46;7.45;;;5.30;;
21868;SDS011;11099;41.564;23.296;2022-08-21T02:08:11;8.27;;;5.68;;
21868;SDS011;11099;41.564;23.296;2022-08-21T02:10:37;7.97;;;5.85;;
21868;SDS011;11099;41.564;23.296;2022-08-21T02:13:02;8.02;;;6.13;;
21868;SDS011;11099;41.564;23.296;2022-08-21T02:15:29;7.78;;;5.45;;
21868;SDS011;11099;41.564;23.296;2022-08-21T02:17:57;9.43;;;5.47;;
21868;SDS011;11099;41.564;23.296;2022-08-21T02:20:30;6.85;;;4.95;;
21868;SDS011;11099;41.564;23.296;2022-08-21T02:22:59;16.42;;;5.82;;
21868;SDS011;11099;41.564;23.296;2022-08-21T02:25:25;9.48;;;4.40;;
21868;SDS011;11099;41.564;23.296;2022-08-21T02:27:54;9.40;;;4.97;;
21868;SDS011;11099;41.564;23.296;2022-08-21T02:30:26;5.95;;;4.93;;
21868;SDS011;11099;41.564;23.296;2022-08-21T02:32:54;6.57;;;4.90;;
21868;SDS011;11099;41.564;23.296;2022-08-21T02:35:20;9.80;;;5.20;;
21868;SDS011;11099;41.564;23.296;2022-08-21T02:37:51;7.88;;;4.82;;
21868;SDS011;11099;41.564;23.296;2022-08-21T02:40:23;9.57;;;5.00;;
21868;SDS011;11099;41.564;23.296;2022-08-21T02:42:51;8.88;;;5.55;;
21868;SDS011;11099;41.564;23.296;2022-08-21T02:45:17;12.05;;;7.05;;
21868;SDS011;11099;41.564;23.296;2022-08-21T02:47:49;14.55;;;7.38;;
21868;SDS011;11099;41.564;23.296;2022-08-21T02:50:25;12.48;;;6.07;;
21868;SDS011;11099;41.564;23.296;2022-08-21T02:52:53;7.50;;;5.90;;
21868;SDS011;11099;41.564;23.296;2022-08-21T02:55:20;10.82;;;6.05;;
21868;SDS011;11099;41.564;23.296;2022-08-21T02:57:47;12.45;;;6.20;;
21868;SDS011;11099;41.564;23.296;2022-08-21T03:00:13;12.40;;;6.57;;
21868;SDS011;11099;41.564;23.296;2022-08-21T03:02:40;8.80;;;6.15;;
21868;SDS011;11099;41.564;23.296;2022-08-21T03:05:06;9.90;;;6.53;;
21868;SDS011;11099;41.564;23.296;2022-08-21T03:07:34;9.25;;;6.03;;
21868;SDS011;11099;41.564;23.296;2022-08-21T03:10:00;15.60;;;6.78;;
21868;SDS011;11099;41.564;23.296;2022-08-21T03:12:25;9.88;;;7.10;;
21868;SDS011;11099;41.564;23.296;2022-08-21T03:14:51;12.82;;;6.75;;
21868;SDS011;11099;41.564;23.296;2022-08-21T03:17:16;14.25;;;7.70;;
21868;SDS011;11099;41.564;23.296;2022-08-21T03:19:42;14.63;;;7.43;;
21868;SDS011;11099;41.564;23.296;2022-08-21T03:22:07;8.40;;;7.55;;
21868;SDS011;11099;41.564;23.296;2022-08-21T03:24:33;13.25;;;7.55;;
21868;SDS011;11099;41.564;23.296;2022-08-21T03:26:58;12.05;;;7.55;;
21868;SDS011;11099;41.564;23.296;2022-08-21T03:29:24;9.57;;;7.93;;
21868;SDS011;11099;41.564;23.296;2022-08-21T03:31:50;14.10;;;7.68;;
21868;SDS011;11099;41.564;23.296;2022-08-21T03:34:18;9.60;;;6.70;;
21868;SDS011;11099;41.564;23.296;2022-08-21T03:36:44;8.63;;;7.43;;
21868;SDS011;11099;41.564;23.296;2022-08-21T03:39:09;7.70;;;6.97;;
21868;SDS011;11099;41.564;23.296;2022-08-21T03:41:35;9.43;;;7.90;;
21868;SDS011;11099;41.564;23.296;2022-08-21T03:44:00;11.98;;;6.72;;
21868;SDS011;11099;41.564;23.296;2022-08-21T03:46:26;9.57;;;7.28;;
21868;SDS011;11099;41.564;23.296;2022-08-21T03:48:52;7.78;;;6.85;;
21868;SDS011;11099;41.564;23.296;2022-08-21T03:51:18;9.90;;;7.47;;
21868;SDS011;11099;41.564;23.296;2022-08-21T03:53:44;12.50;;;7.55;;
21868;SDS011;11099;41.564;23.296;2022-08-21T03:56:10;9.35;;;8.15;;
21868;SDS011;11099;41.564;23.296;2022-08-21T03:58:35;21.55;;;7.80;;
21868;SDS011;11099;41.564;23.296;2022-08-21T04:01:03;9.55;;;7.13;;
21868;SDS011;11099;41.564;23.296;2022-08-21T04:03:31;14.60;;;7.95;;
21868;SDS011;11099;41.564;23.296;2022-08-21T04:05:58;13.13;;;7.55;;
21868;SDS011;11099;41.564;23.296;2022-08-21T04:08:24;8.27;;;6.95;;
21868;SDS011;11099;41.564;23.296;2022-08-21T04:10:51;12.77;;;8.25;;
21868;SDS011;11099;41.564;23.296;2022-08-21T04:13:20;13.95;;;9.13;;
21868;SDS011;11099;41.564;23.296;2022-08-21T04:15:46;17.08;;;9.10;;
21868;SDS011;11099;41.564;23.296;2022-08-21T04:18:11;14.13;;;8.70;;
21868;SDS011;11099;41.564;23.296;2022-08-21T04:20:37;10.55;;;7.00;;
21868;SDS011;11099;41.564;23.296;2022-08-21T04:23:03;15.43;;;7.20;;
21868;SDS011;11099;41.564;23.296;2022-08-21T04:25:28;12.95;;;6.90;;
21868;SDS011;11099;41.564;23.296;2022-08-21T04:27:55;8.65;;;5.90;;
21868;SDS011;11099;41.564;23.296;2022-08-21T04:30:21;10.27;;;6.28;;
21868;SDS011;11099;41.564;23.296;2022-08-21T04:32:47;10.95;;;6.85;;
21868;SDS011;11099;41.564;23.296;2022-08-21T04:35:15;11.43;;;6.97;;
21868;SDS011;11099;41.564;23.296;2022-08-21T04:37:46;9.00;;;6.80;;
21868;SDS011;11099;41.564;23.296;2022-08-21T04:40:12;13.55;;;7.20;;
21868;SDS011;11099;41.564;23.296;2022-08-21T04:42:53;10.00;;;6.20;;
21868;SDS011;11099;41.564;23.296;2022-08-21T04:45:29;11.27;;;7.28;;
21868;SDS011;11099;41.564;23.296;2022-08-21T04:47:57;13.40;;;7.55;;
21868;SDS011;11099;41.564;23.296;2022-08-21T04:50:25;12.48;;;9.05;;
21868;SDS011;11099;41.564;23.296;2022-08-21T04:52:56;13.50;;;8.13;;
21868;SDS011;11099;41.564;23.296;2022-08-21T04:55:22;9.95;;;7.57;;
21868;SDS011;11099;41.564;23.296;2022-08-21T04:57:49;11.88;;;7.75;;
21868;SDS011;11099;41.564;23.296;2022-08-21T05:00:17;11.93;;;7.68;;
21868;SDS011;11099;41.564;23.296;2022-08-21T05:02:43;14.75;;;11.27;;
21868;SDS011;11099;41.564;23.296;2022-08-21T05:05:12;17.15;;;12.98;;
21868;SDS011;11099;41.564;23.296;2022-08-21T05:07:38;15.43;;;13.82;;
21868;SDS011;11099;41.564;23.296;2022-08-21T05:10:05;16.23;;;13.82;;
21868;SDS011;11099;41.564;23.296;2022-08-21T05:12:32;20.33;;;15.02;;
21868;SDS011;11099;41.564;23.296;2022-08-21T05:14:59;20.98;;;16.00;;
21868;SDS011;11099;41.564;23.296;2022-08-21T05:17:25;24.95;;;16.60;;
21868;SDS011;11099;41.564;23.296;2022-08-21T05:19:50;22.60;;;15.68;;
21868;SDS011;11099;41.564;23.296;2022-08-21T05:22:22;27.42;;;16.40;;
21868;SDS011;11099;41.564;23.296;2022-08-21T05:24:49;17.33;;;15.43;;
21868;SDS011;11099;41.564;23.296;2022-08-21T05:27:15;23.50;;;17.08;;
21868;SDS011;11099;41.564;23.296;2022-08-21T05:29:40;15.32;;;13.68;;
21868;SDS011;11099;41.564;23.296;2022-08-21T05:32:09;17.45;;;14.07;;
21868;SDS011;11099;41.564;23.296;2022-08-21T05:34:36;20.27;;;13.60;;
21868;SDS011;11099;41.564;23.296;2022-08-21T05:37:02;15.20;;;12.70;;
21868;SDS011;11099;41.564;23.296;2022-08-21T05:39:28;14.65;;;12.15;;
21868;SDS011;11099;41.564;23.296;2022-08-21T05:41:53;17.30;;;13.75;;
21868;SDS011;11099;41.564;23.296;2022-08-21T05:44:19;18.55;;;15.70;;
21868;SDS011;11099;41.564;23.296;2022-08-21T05:46:44;21.67;;;17.40;;
21868;SDS011;11099;41.564;23.296;2022-08-21T05:49:10;20.08;;;15.70;;
21868;SDS011;11099;41.564;23.296;2022-08-21T05:51:36;23.67;;;17.35;;
21868;SDS011;11099;41.564;23.296;2022-08-21T05:54:04;23.45;;;16.70;;
21868;SDS011;11099;41.564;23.296;2022-08-21T05:56:29;22.98;;;17.77;;
21868;SDS011;11099;41.564;23.296;2022-08-21T05:58:55;21.80;;;14.88;;
21868;SDS011;11099;41.564;23.296;2022-08-21T06:01:21;18.95;;;16.48;;
21868;SDS011;11099;41.564;23.296;2022-08-21T06:03:47;14.50;;;12.98;;
21868;SDS011;11099;41.564;23.296;2022-08-21T06:06:12;13.43;;;10.90;;
21868;SDS011;11099;41.564;23.296;2022-08-21T06:08:38;14.85;;;11.20;;
21868;SDS011;11099;41.564;23.296;2022-08-21T06:11:05;13.30;;;10.55;;
21868;SDS011;11099;41.564;23.296;2022-08-21T06:13:31;11.45;;;8.65;;
21868;SDS011;11099;41.564;23.296;2022-08-21T06:16:04;10.65;;;8.50;;
21868;SDS011;11099;41.564;23.296;2022-08-21T06:18:31;16.50;;;8.32;;
21868;SDS011;11099;41.564;23.296;2022-08-21T06:20:57;12.00;;;7.68;;
21868;SDS011;11099;41.564;23.296;2022-08-21T06:23:22;13.73;;;7.95;;
21868;SDS011;11099;41.564;23.296;2022-08-21T06:25:48;12.50;;;8.48;;
21868;SDS011;11099;41.564;23.296;2022-08-21T06:28:13;12.80;;;8.55;;
21868;SDS011;11099;41.564;23.296;2022-08-21T06:30:39;12.60;;;9.75;;
21868;SDS011;11099;41.564;23.296;2022-08-21T06:33:05;18.55;;;13.25;;
21868;SDS011;11099;41.564;23.296;2022-08-21T06:35:32;19.88;;;12.15;;
21868;SDS011;11099;41.564;23.296;2022-08-21T06:37:59;14.45;;;10.95;;
21868;SDS011;11099;41.564;23.296;2022-08-21T06:40:26;17.30;;;10.20;;
21868;SDS011;11099;41.564;23.296;2022-08-21T06:42:52;18.50;;;10.55;;
21868;SDS011;11099;41.564;23.296;2022-08-21T06:45:18;13.65;;;10.00;;
21868;SDS011;11099;41.564;23.296;2022-08-21T06:47:44;11.82;;;10.32;;
21868;SDS011;11099;41.564;23.296;2022-08-21T06:50:10;12.55;;;10.30;;
21868;SDS011;11099;41.564;23.296;2022-08-21T06:52:36;14.90;;;10.10;;
21868;SDS011;11099;41.564;23.296;2022-08-21T06:55:02;14.07;;;10.43;;
21868;SDS011;11099;41.564;23.296;2022-08-21T06:57:30;12.75;;;10.30;;
21868;SDS011;11099;41.564;23.296;2022-08-21T06:59:55;13.75;;;10.27;;
21868;SDS011;11099;41.564;23.296;2022-08-21T07:02:21;11.73;;;10.38;;
21868;SDS011;11099;41.564;23.296;2022-08-21T07:04:46;14.52;;;11.02;;
21868;SDS011;11099;41.564;23.296;2022-08-21T07:07:12;14.77;;;11.07;;
21868;SDS011;11099;41.564;23.296;2022-08-21T07:09:37;12.63;;;10.73;;
21868;SDS011;11099;41.564;23.296;2022-08-21T07:12:04;17.42;;;9.85;;
21868;SDS011;11099;41.564;23.296;2022-08-21T07:14:30;13.07;;;9.55;;
21868;SDS011;11099;41.564;23.296;2022-08-21T07:16:55;12.35;;;9.73;;
21868;SDS011;11099;41.564;23.296;2022-08-21T07:19:21;10.18;;;8.80;;
21868;SDS011;11099;41.564;23.296;2022-08-21T07:21:47;10.32;;;8.57;;
21868;SDS011;11099;41.564;23.296;2022-08-21T07:24:12;13.77;;;8.70;;
21868;SDS011;11099;41.564;23.296;2022-08-21T07:26:38;10.13;;;9.13;;
21868;SDS011;11099;41.564;23.296;2022-08-21T07:29:04;14.02;;;9.43;;
21868;SDS011;11099;41.564;23.296;2022-08-21T07:31:30;13.68;;;10.27;;
21868;SDS011;11099;41.564;23.296;2022-08-21T07:33:55;11.90;;;10.70;;
21868;SDS011;11099;41.564;23.296;2022-08-21T07:36:21;16.15;;;10.45;;
21868;SDS011;11099;41.564;23.296;2022-08-21T07:38:47;18.63;;;11.25;;
21868;SDS011;11099;41.564;23.296;2022-08-21T07:41:18;15.27;;;11.05;;
21868;SDS011;11099;41.564;23.296;2022-08-21T07:43:50;16.60;;;11.50;;
21868;SDS011;11099;41.564;23.296;2022-08-21T07:46:16;14.07;;;11.65;;
21868;SDS011;11099;41.564;23.296;2022-08-21T07:48:42;18.55;;;11.73;;
21868;SDS011;11099;41.564;23.296;2022-08-21T07:51:09;13.57;;;12.00;;
21868;SDS011;11099;41.564;23.296;2022-08-21T07:53:37;16.85;;;11.73;;
21868;SDS011;11099;41.564;23.296;2022-08-21T07:56:03;14.95;;;11.27;;
21868;SDS011;11099;41.564;23.296;2022-08-21T07:58:30;13.38;;;11.95;;
21868;SDS011;11099;41.564;23.296;2022-08-21T08:00:55;14.50;;;11.93;;
21868;SDS011;11099;41.564;23.296;2022-08-21T08:03:21;14.77;;;11.35;;
21868;SDS011;11099;41.564;23.296;2022-08-21T08:05:47;12.77;;;11.38;;
21868;SDS011;11099;41.564;23.296;2022-08-21T08:08:12;12.80;;;11.07;;
21868;SDS011;11099;41.564;23.296;2022-08-21T08:10:38;10.80;;;9.75;;
21868;SDS011;11099;41.564;23.296;2022-08-21T08:13:04;15.85;;;10.68;;
21868;SDS011;11099;41.564;23.296;2022-08-21T08:15:30;13.60;;;9.88;;
21868;SDS011;11099;41.564;23.296;2022-08-21T08:17:56;20.02;;;10.40;;
21868;SDS011;11099;41.564;23.296;2022-08-21T08:20:22;13.40;;;11.05;;
21868;SDS011;11099;41.564;23.296;2022-08-21T08:22:51;11.93;;;10.70;;
21868;SDS011;11099;41.564;23.296;2022-08-21T08:25:18;11.07;;;10.00;;
21868;SDS011;11099;41.564;23.296;2022-08-21T08:27:44;14.27;;;11.07;;
21868;SDS011;11099;41.564;23.296;2022-08-21T08:30:11;13.18;;;10.48;;
21868;SDS011;11099;41.564;23.296;2022-08-21T08:32:39;11.77;;;9.83;;
21868;SDS011;11099;41.564;23.296;2022-08-21T08:35:05;15.68;;;11.35;;
21868;SDS011;11099;41.564;23.296;2022-08-21T08:37:31;15.30;;;12.00;;
21868;SDS011;11099;41.564;23.296;2022-08-21T08:39:58;14.88;;;11.60;;
21868;SDS011;11099;41.564;23.296;2022-08-21T08:42:25;13.02;;;11.05;;
21868;SDS011;11099;41.564;23.296;2022-08-21T08:45:19;12.95;;;10.18;;
21868;SDS011;11099;41.564;23.296;2022-08-21T08:47:47;11.30;;;10.30;;
21868;SDS011;11099;41.564;23.296;2022-08-21T08:50:18;13.70;;;11.32;;
21868;SDS011;11099;41.564;23.296;2022-08-21T08:53:05;14.10;;;11.65;;
21868;SDS011;11099;41.564;23.296;2022-08-21T08:55:36;12.02;;;10.88;;
21868;SDS011;11099;41.564;23.296;2022-08-21T08:58:05;14.15;;;11.23;;
21868;SDS011;11099;41.564;23.296;2022-08-21T09:00:32;12.98;;;11.18;;
21868;SDS011;11099;41.564;23.296;2022-08-21T09:02:59;13.05;;;11.68;;
21868;SDS011;11099;41.564;23.296;2022-08-21T09:05:48;12.55;;;11.25;;
21868;SDS011;11099;41.564;23.296;2022-08-21T09:08:34;12.18;;;10.88;;
21868;SDS011;11099;41.564;23.296;2022-08-21T09:14:27;12.15;;;10.88;;
21868;SDS011;11099;41.564;23.296;2022-08-21T09:27:59;12.82;;;11.07;;
21868;SDS011;11099;41.564;23.296;2022-08-21T09:30:28;12.55;;;10.20;;
21868;SDS011;11099;41.564;23.296;2022-08-21T09:32:56;15.65;;;10.25;;
21868;SDS011;11099;41.564;23.296;2022-08-21T09:35:22;16.40;;;10.60;;
21868;SDS011;11099;41.564;23.296;2022-08-21T09:37:59;11.60;;;10.48;;
21868;SDS011;11099;41.564;23.296;2022-08-21T09:45:42;10.45;;;8.65;;
21868;SDS011;11099;41.564;23.296;2022-08-21T09:48:23;11.07;;;9.87;;
21868;SDS011;11099;41.564;23.296;2022-08-21T09:50:51;13.57;;;9.65;;
21868;SDS011;11099;41.564;23.296;2022-08-21T09:53:20;11.48;;;8.93;;
21868;SDS011;11099;41.564;23.296;2022-08-21T09:55:49;12.68;;;9.85;;
21868;SDS011;11099;41.564;23.296;2022-08-21T09:58:37;10.90;;;9.80;;
21868;SDS011;11099;41.564;23.296;2022-08-21T10:01:05;10.75;;;9.63;;
21868;SDS011;11099;41.564;23.296;2022-08-21T10:03:31;10.77;;;9.73;;
21868;SDS011;11099;41.564;23.296;2022-08-21T10:06:04;16.23;;;10.35;;
21868;SDS011;11099;41.564;23.296;2022-08-21T10:08:34;13.70;;;10.25;;
21868;SDS011;11099;41.564;23.296;2022-08-21T10:11:03;11.35;;;10.20;;
21868;SDS011;11099;41.564;23.296;2022-08-21T10:35:14;12.73;;;10.65;;
21868;SDS011;11099;41.564;23.296;2022-08-21T10:37:50;12.25;;;10.23;;
21868;SDS011;11099;41.564;23.296;2022-08-21T10:43:39;14.77;;;11.77;;
21868;SDS011;11099;41.564;23.296;2022-08-21T10:46:29;14.70;;;12.02;;
21868;SDS011;11099;41.564;23.296;2022-08-21T10:52:22;13.85;;;12.65;;
21868;SDS011;11099;41.564;23.296;2022-08-21T10:55:25;15.13;;;13.52;;
21868;SDS011;11099;41.564;23.296;2022-08-21T10:57:57;13.50;;;12.05;;
21868;SDS011;11099;41.564;23.296;2022-08-21T11:00:33;14.65;;;13.05;;
21868;SDS011;11099;41.564;23.296;2022-08-21T11:03:21;14.25;;;12.20;;
21868;SDS011;11099;41.564;23.296;2022-08-21T11:06:04;14.10;;;12.27;;
21868;SDS011;11099;41.564;23.296;2022-08-21T11:08:44;13.75;;;12.35;;
21868;SDS011;11099;41.564;23.296;2022-08-21T11:11:20;14.23;;;11.73;;
21868;SDS011;11099;41.564;23.296;2022-08-21T11:16:57;11.02;;;9.23;;
21868;SDS011;11099;41.564;23.296;2022-08-21T11:19:35;9.60;;;8.60;;
21868;SDS011;11099;41.564;23.296;2022-08-21T11:24:58;8.50;;;7.65;;
21868;SDS011;11099;41.564;23.296;2022-08-21T11:30:13;10.10;;;7.70;;
21868;SDS011;11099;41.564;23.296;2022-08-21T11:35:22;8.75;;;7.78;;
21868;SDS011;11099;41.564;23.296;2022-08-21T11:43:48;11.55;;;10.45;;
21868;SDS011;11099;41.564;23.296;2022-08-21T11:51:44;15.75;;;12.88;;
21868;SDS011;11099;41.564;23.296;2022-08-21T11:57:07;15.80;;;12.18;;
21868;SDS011;11099;41.564;23.296;2022-08-21T11:59:38;14.32;;;12.52;;
21868;SDS011;11099;41.564;23.296;2022-08-21T12:02:12;13.25;;;11.90;;
21868;SDS011;11099;41.564;23.296;2022-08-21T12:04:45;20.17;;;11.95;;
21868;SDS011;11099;41.564;23.296;2022-08-21T12:09:58;12.50;;;11.30;;
21868;SDS011;11099;41.564;23.296;2022-08-21T12:12:31;13.85;;;10.77;;
21868;SDS011;11099;41.564;23.296;2022-08-21T12:17:37;16.10;;;12.32;;
21868;SDS011;11099;41.564;23.296;2022-08-21T12:28:34;12.75;;;11.35;;
21868;SDS011;11099;41.564;23.296;2022-08-21T12:31:00;13.35;;;10.45;;
21868;SDS011;11099;41.564;23.296;2022-08-21T12:33:27;15.90;;;11.35;;
21868;SDS011;11099;41.564;23.296;2022-08-21T12:36:07;12.80;;;11.35;;
21868;SDS011;11099;41.564;23.296;2022-08-21T12:38:47;13.77;;;12.35;;
21868;SDS011;11099;41.564;23.296;2022-08-21T12:41:33;13.32;;;12.00;;
21868;SDS011;11099;41.564;23.296;2022-08-21T12:44:13;12.68;;;11.38;;
21868;SDS011;11099;41.564;23.296;2022-08-21T12:46:56;12.30;;;11.02;;
21868;SDS011;11099;41.564;23.296;2022-08-21T12:49:35;13.10;;;9.35;;
21868;SDS011;11099;41.564;23.296;2022-08-21T12:55:11;13.40;;;9.25;;
21868;SDS011;11099;41.564;23.296;2022-08-21T12:57:39;13.98;;;9.90;;
21868;SDS011;11099;41.564;23.296;2022-08-21T13:00:07;16.00;;;10.30;;
21868;SDS011;11099;41.564;23.296;2022-08-21T13:02:38;17.38;;;11.07;;
21868;SDS011;11099;41.564;23.296;2022-08-21T13:05:11;12.95;;;10.18;;
21868;SDS011;11099;41.564;23.296;2022-08-21T13:07:43;13.95;;;11.13;;
21868;SDS011;11099;41.564;23.296;2022-08-21T13:10:16;12.32;;;10.18;;
21868;SDS011;11099;41.564;23.296;2022-08-21T13:12:45;15.13;;;11.25;;
21868;SDS011;11099;41.564;23.296;2022-08-21T13:15:11;21.58;;;11.77;;
21868;SDS011;11099;41.564;23.296;2022-08-21T13:17:39;14.48;;;11.93;;
21868;SDS011;11099;41.564;23.296;2022-08-21T13:20:23;16.55;;;11.45;;
21868;SDS011;11099;41.564;23.296;2022-08-21T13:22:52;17.48;;;12.45;;
21868;SDS011;11099;41.564;23.296;2022-08-21T13:25:19;17.30;;;12.52;;
21868;SDS011;11099;41.564;23.296;2022-08-21T13:27:56;15.75;;;12.73;;
21868;SDS011;11099;41.564;23.296;2022-08-21T13:30:25;19.55;;;12.90;;
21868;SDS011;11099;41.564;23.296;2022-08-21T13:32:52;13.65;;;12.23;;
21868;SDS011;11099;41.564;23.296;2022-08-21T13:35:23;15.90;;;13.02;;
21868;SDS011;11099;41.564;23.296;2022-08-21T13:37:52;15.43;;;12.05;;
21868;SDS011;11099;41.564;23.296;2022-08-21T13:40:28;17.15;;;12.10;;
21868;SDS011;11099;41.564;23.296;2022-08-21T13:43:03;16.48;;;12.77;;
21868;SDS011;11099;41.564;23.296;2022-08-21T13:45:32;15.38;;;11.82;;
21868;SDS011;11099;41.564;23.296;2022-08-21T13:47:59;12.07;;;10.15;;
21868;SDS011;11099;41.564;23.296;2022-08-21T13:50:26;15.30;;;11.40;;
21868;SDS011;11099;41.564;23.296;2022-08-21T13:52:59;14.27;;;9.98;;
21868;SDS011;11099;41.564;23.296;2022-08-21T13:55:38;12.18;;;10.48;;
21868;SDS011;11099;41.564;23.296;2022-08-21T13:58:06;14.07;;;10.32;;
21868;SDS011;11099;41.564;23.296;2022-08-21T14:00:43;11.60;;;10.45;;
21868;SDS011;11099;41.564;23.296;2022-08-21T14:03:11;12.63;;;11.07;;
21868;SDS011;11099;41.564;23.296;2022-08-21T14:05:48;14.88;;;12.15;;
21868;SDS011;11099;41.564;23.296;2022-08-21T14:08:15;14.30;;;12.77;;
21868;SDS011;11099;41.564;23.296;2022-08-21T14:10:52;16.77;;;12.93;;
21868;SDS011;11099;41.564;23.296;2022-08-21T14:16:18;14.30;;;11.35;;
21868;SDS011;11099;41.564;23.296;2022-08-21T14:21:41;11.20;;;9.23;;
21868;SDS011;11099;41.564;23.296;2022-08-21T14:24:25;11.02;;;9.70;;
21868;SDS011;11099;41.564;23.296;2022-08-21T14:29:21;11.75;;;10.32;;
21868;SDS011;11099;41.564;23.296;2022-08-21T14:31:51;11.65;;;10.45;;
21868;SDS011;11099;41.564;23.296;2022-08-21T14:34:19;13.25;;;11.60;;
21868;SDS011;11099;41.564;23.296;2022-08-21T14:36:46;11.57;;;10.18;;
21868;SDS011;11099;41.564;23.296;2022-08-21T14:39:13;13.82;;;10.95;;
21868;SDS011;11099;41.564;23.296;2022-08-21T14:41:38;11.65;;;9.85;;
21868;SDS011;11099;41.564;23.296;2022-08-21T14:44:04;10.95;;;9.85;;
21868;SDS011;11099;41.564;23.296;2022-08-21T14:46:30;10.80;;;9.75;;
21868;SDS011;11099;41.564;23.296;2022-08-21T14:49:00;11.85;;;10.63;;
21868;SDS011;11099;41.564;23.296;2022-08-21T14:51:27;16.13;;;9.85;;
21868;SDS011;11099;41.564;23.296;2022-08-21T14:53:53;13.18;;;11.18;;
21868;SDS011;11099;41.564;23.296;2022-08-21T14:56:19;12.50;;;11.20;;
21868;SDS011;11099;41.564;23.296;2022-08-21T14:58:46;12.80;;;10.77;;
21868;SDS011;11099;41.564;23.296;2022-08-21T15:01:14;11.48;;;10.27;;
21868;SDS011;11099;41.564;23.296;2022-08-21T15:03:43;14.00;;;11.20;;
21868;SDS011;11099;41.564;23.296;2022-08-21T15:06:09;13.18;;;9.98;;
21868;SDS011;11099;41.564;23.296;2022-08-21T15:08:35;13.05;;;11.25;;
21868;SDS011;11099;41.564;23.296;2022-08-21T15:11:02;14.63;;;11.95;;
21868;SDS011;11099;41.564;23.296;2022-08-21T15:13:29;14.13;;;10.67;;
21868;SDS011;11099;41.564;23.296;2022-08-21T15:15:56;12.00;;;9.77;;
21868;SDS011;11099;41.564;23.296;2022-08-21T15:18:22;15.23;;;13.68;;
21868;SDS011;11099;41.564;23.296;2022-08-21T15:20:49;15.40;;;13.73;;
21868;SDS011;11099;41.564;23.296;2022-08-21T15:23:15;15.38;;;13.77;;
21868;SDS011;11099;41.564;23.296;2022-08-21T15:25:43;12.80;;;10.95;;
21868;SDS011;11099;41.564;23.296;2022-08-21T15:28:10;15.15;;;10.85;;
21868;SDS011;11099;41.564;23.296;2022-08-21T15:30:37;14.00;;;11.07;;
21868;SDS011;11099;41.564;23.296;2022-08-21T15:33:04;15.90;;;11.25;;
21868;SDS011;11099;41.564;23.296;2022-08-21T15:35:30;11.55;;;10.40;;
21868;SDS011;11099;41.564;23.296;2022-08-21T15:37:56;12.48;;;9.68;;
21868;SDS011;11099;41.564;23.296;2022-08-21T15:40:22;13.18;;;9.35;;
21868;SDS011;11099;41.564;23.296;2022-08-21T15:42:49;11.60;;;10.52;;
21868;SDS011;11099;41.564;23.296;2022-08-21T15:47:43;12.40;;;11.30;;
21868;SDS011;11099;41.564;23.296;2022-08-21T15:50:10;8.70;;;7.88;;
21868;SDS011;11099;41.564;23.296;2022-08-21T15:52:36;9.93;;;8.15;;
21868;SDS011;11099;41.564;23.296;2022-08-21T15:55:03;10.25;;;8.57;;
21868;SDS011;11099;41.564;23.296;2022-08-21T15:57:30;10.18;;;8.23;;
21868;SDS011;11099;41.564;23.296;2022-08-21T15:59:56;9.73;;;8.82;;
21868;SDS011;11099;41.564;23.296;2022-08-21T16:02:33;8.70;;;7.90;;
21868;SDS011;11099;41.564;23.296;2022-08-21T16:04:58;10.98;;;8.88;;
21868;SDS011;11099;41.564;23.296;2022-08-21T16:07:24;11.05;;;7.63;;
21868;SDS011;11099;41.564;23.296;2022-08-21T16:09:50;9.63;;;7.65;;